createdAt,value
2018-09-26T00:01:54.833Z,91.91
2018-09-26T00:04:27.146Z,92.82
2018-09-26T00:06:57.530Z,92.72
2018-09-26T00:09:27.961Z,93.80
2018-09-26T00:11:57.662Z,94.13
2018-09-26T00:14:27.479Z,94.28
2018-09-26T00:16:57.240Z,94.76
2018-09-26T00:19:27.257Z,93.76
2018-09-26T00:21:57.208Z,93.52
2018-09-26T00:24:26.894Z,94.58
2018-09-26T00:26:56.694Z,94.70
2018-09-26T00:29:26.392Z,96.16
2018-09-26T00:31:56.160Z,98.09
2018-09-26T00:34:25.968Z,99.56
2018-09-26T00:36:55.703Z,100.00
2018-09-26T00:39:25.441Z,100.00
2018-09-26T00:41:55.057Z,100.00
2018-09-26T00:44:24.784Z,99.76
2018-09-26T00:46:54.575Z,99.76
2018-09-26T00:49:24.345Z,99.55
2018-09-26T00:51:54.124Z,100.00
2018-09-26T00:54:23.793Z,100.00
2018-09-26T00:56:53.610Z,100.00
2018-09-26T00:59:23.349Z,100.00
2018-09-26T01:01:53.133Z,100.00
2018-09-26T01:04:22.771Z,100.00
2018-09-26T01:06:52.606Z,100.00
2018-09-26T01:09:22.489Z,100.00
2018-09-26T01:11:52.437Z,100.00
2018-09-26T01:14:22.073Z,100.00
2018-09-26T01:16:51.770Z,100.00
2018-09-26T01:19:22.314Z,100.00
2018-09-26T01:21:51.979Z,100.00
2018-09-26T01:24:21.610Z,100.00
2018-09-26T01:26:51.365Z,100.00
2018-09-26T01:29:21.230Z,100.00
2018-09-26T01:31:51.001Z,100.00
2018-09-26T01:34:20.667Z,100.00
2018-09-26T01:36:50.392Z,100.00
2018-09-26T01:39:20.093Z,100.00
2018-09-26T01:41:49.908Z,100.00
2018-09-26T01:44:19.691Z,100.00
2018-09-26T01:46:49.469Z,100.00
2018-09-26T01:49:19.161Z,100.00
2018-09-26T01:51:48.810Z,100.00
2018-09-26T01:54:18.455Z,100.00
2018-09-26T01:56:48.285Z,100.00
2018-09-26T01:59:17.898Z,100.00
2018-09-26T02:01:47.665Z,100.00
2018-09-26T02:04:17.296Z,100.00
2018-09-26T02:06:46.985Z,100.00
2018-09-26T02:09:16.638Z,100.00
2018-09-26T02:11:46.408Z,100.00
2018-09-26T02:14:16.220Z,100.00
2018-09-26T02:16:45.894Z,100.00
2018-09-26T02:19:15.553Z,100.00
2018-09-26T02:21:45.377Z,100.00
2018-09-26T02:24:15.102Z,100.00
2018-09-26T02:26:44.826Z,100.00
2018-09-26T02:29:14.528Z,100.00
2018-09-26T02:31:44.293Z,100.00
2018-09-26T02:34:14.010Z,100.00
2018-09-26T02:36:43.677Z,100.00
2018-09-26T02:39:13.621Z,100.00
2018-09-26T02:41:43.401Z,100.00
2018-09-26T02:44:13.098Z,100.00
2018-09-26T02:46:42.740Z,100.00
2018-09-26T02:49:12.559Z,100.00
2018-09-26T02:51:42.250Z,100.00
2018-09-26T02:54:12.060Z,100.00
2018-09-26T02:56:41.757Z,100.00
2018-09-26T02:59:11.587Z,100.00
2018-09-26T03:01:41.257Z,100.00
2018-09-26T03:04:10.921Z,100.00
2018-09-26T03:06:40.571Z,100.00
2018-09-26T03:09:11.105Z,100.00
2018-09-26T03:11:40.901Z,100.00
2018-09-26T03:14:10.682Z,100.00
2018-09-26T03:16:40.361Z,100.00
2018-09-26T03:19:10.189Z,100.00
2018-09-26T03:21:39.845Z,100.00
2018-09-26T03:24:09.489Z,100.00
2018-09-26T03:26:39.233Z,100.00
2018-09-26T03:29:09.115Z,100.00
2018-09-26T03:31:38.816Z,100.00
2018-09-26T03:34:08.698Z,100.00
2018-09-26T03:36:38.385Z,100.00
2018-09-26T03:39:09.070Z,100.00
2018-09-26T03:41:38.823Z,100.00
2018-09-26T03:44:08.514Z,100.00
2018-09-26T03:46:38.244Z,100.00
2018-09-26T03:49:08.046Z,100.00
2018-09-26T03:51:37.704Z,100.00
2018-09-26T03:54:07.540Z,100.00
2018-09-26T03:56:37.333Z,100.00
2018-09-26T03:59:07.458Z,100.00
2018-09-26T04:01:37.209Z,100.00
2018-09-26T04:04:06.976Z,100.00
2018-09-26T04:06:36.745Z,100.00
2018-09-26T04:09:08.828Z,100.00
2018-09-26T04:11:38.560Z,100.00
2018-09-26T04:14:08.340Z,100.00
2018-09-26T04:16:38.285Z,100.00
2018-09-26T04:19:08.063Z,100.00
2018-09-26T04:21:37.750Z,100.00
2018-09-26T04:24:07.624Z,100.00
2018-09-26T04:26:37.576Z,100.00
2018-09-26T04:29:07.234Z,100.00
2018-09-26T04:31:36.934Z,100.00
2018-09-26T04:34:06.857Z,100.00
2018-09-26T04:36:36.562Z,100.00
2018-09-26T04:39:10.709Z,99.09
2018-09-26T04:41:40.955Z,100.00
2018-09-26T04:44:10.853Z,99.50
2018-09-26T04:46:40.629Z,98.17
2018-09-26T04:49:10.437Z,98.38
2018-09-26T04:51:40.139Z,97.99
2018-09-26T04:54:10.474Z,96.80
2018-09-26T04:56:40.937Z,97.38
2018-09-26T04:59:10.626Z,97.90
2018-09-26T05:01:40.334Z,98.70
2018-09-26T05:04:10.243Z,96.44
2018-09-26T05:06:39.877Z,97.29
2018-09-26T05:09:11.215Z,97.86
2018-09-26T05:11:40.986Z,96.57
2018-09-26T05:14:10.659Z,96.18
2018-09-26T05:16:40.313Z,96.61
2018-09-26T05:19:10.287Z,96.48
2018-09-26T05:21:39.991Z,97.33
2018-09-26T05:24:09.891Z,98.88
2018-09-26T05:26:40.284Z,98.20
2018-09-26T05:29:10.228Z,98.39
2018-09-26T05:31:39.872Z,97.60
2018-09-26T05:34:09.593Z,96.41
2018-09-26T05:36:39.257Z,95.71
2018-09-26T05:39:11.928Z,95.60
2018-09-26T05:41:41.720Z,95.49
2018-09-26T05:44:11.498Z,94.48
2018-09-26T05:46:41.250Z,93.65
2018-09-26T05:49:11.026Z,93.55
2018-09-26T05:51:41.165Z,93.85
2018-09-26T05:54:10.769Z,93.23
2018-09-26T05:56:40.489Z,94.97
2018-09-26T05:59:10.383Z,95.91
2018-09-26T06:01:40.130Z,95.44
2018-09-26T06:04:09.794Z,93.61
2018-09-26T06:06:39.465Z,91.75
2018-09-26T06:09:13.090Z,91.53
2018-09-26T06:11:43.281Z,92.16
2018-09-26T06:14:13.526Z,92.52
2018-09-26T06:16:43.260Z,90.67
2018-09-26T06:19:12.935Z,89.53
2018-09-26T06:21:42.720Z,89.71
2018-09-26T06:24:12.582Z,88.62
2018-09-26T06:26:42.352Z,86.91
2018-09-26T06:29:12.020Z,87.16
2018-09-26T06:31:41.648Z,84.89
2018-09-26T06:34:11.389Z,85.73
2018-09-26T06:36:41.026Z,84.69
2018-09-26T06:39:12.286Z,82.44
2018-09-26T06:41:42.409Z,82.40
2018-09-26T06:44:12.257Z,80.85
2018-09-26T06:46:41.981Z,79.96
2018-09-26T06:49:11.876Z,79.07
2018-09-26T06:51:42.498Z,78.28
2018-09-26T06:54:12.221Z,78.62
2018-09-26T06:56:42.080Z,77.82
2018-09-26T06:59:11.925Z,78.22
2018-09-26T07:01:41.618Z,79.24
2018-09-26T07:04:11.257Z,77.80
2018-09-26T07:06:40.921Z,77.81
2018-09-26T07:09:11.465Z,77.40
2018-09-26T07:11:41.308Z,77.63
2018-09-26T07:14:11.193Z,77.52
2018-09-26T07:16:40.852Z,78.62
2018-09-26T07:19:10.652Z,77.25
2018-09-26T07:21:40.401Z,76.16
2018-09-26T07:24:10.089Z,75.20
2018-09-26T07:26:40.042Z,74.77
2018-09-26T07:29:09.906Z,74.14
2018-09-26T07:31:39.660Z,73.52
2018-09-26T07:34:09.636Z,75.19
2018-09-26T07:36:39.698Z,72.58
2018-09-26T07:39:11.973Z,72.52
2018-09-26T07:41:41.698Z,72.38
2018-09-26T07:44:11.390Z,72.75
2018-09-26T07:46:41.066Z,72.12
2018-09-26T07:49:10.937Z,70.65
2018-09-26T07:51:40.631Z,70.85
2018-09-26T07:54:10.385Z,68.46
2018-09-26T07:56:40.055Z,67.89
2018-09-26T07:59:10.046Z,67.19
2018-09-26T08:01:39.820Z,67.59
2018-09-26T08:04:09.636Z,67.30
2018-09-26T08:06:39.334Z,67.45
2018-09-26T08:09:10.161Z,66.27
2018-09-26T08:11:40.052Z,66.14
2018-09-26T08:14:09.820Z,65.80
2018-09-26T08:16:39.499Z,63.92
2018-09-26T08:19:09.689Z,64.49
2018-09-26T08:21:39.494Z,62.46
2018-09-26T08:24:09.286Z,63.16
2018-09-26T08:26:38.833Z,61.57
2018-09-26T08:29:08.617Z,62.22
2018-09-26T08:31:38.405Z,61.84
2018-09-26T08:34:08.229Z,61.91
2018-09-26T08:36:37.977Z,62.21
2018-09-26T08:39:11.597Z,61.75
2018-09-26T08:41:41.288Z,59.20
2018-09-26T08:44:11.477Z,59.37
2018-09-26T08:46:41.525Z,59.24
2018-09-26T08:49:11.278Z,60.45
2018-09-26T08:51:40.998Z,60.60
2018-09-26T08:54:10.738Z,57.72
2018-09-26T08:56:40.454Z,58.86
2018-09-26T08:59:10.222Z,57.75
2018-09-26T09:01:46.855Z,57.05
2018-09-26T09:04:17.904Z,54.30
2018-09-26T09:06:47.906Z,54.21
2018-09-26T09:09:17.584Z,51.17
2018-09-26T09:11:47.324Z,50.05
2018-09-26T09:14:17.022Z,49.30
2018-09-26T09:16:46.734Z,47.09
2018-09-26T09:19:16.505Z,44.59
2018-09-26T09:21:46.310Z,46.60
2018-09-26T09:24:16.072Z,44.21
2018-09-26T09:26:45.784Z,44.63
2018-09-26T09:29:15.648Z,42.86
2018-09-26T09:31:45.321Z,41.58
2018-09-26T09:34:15.196Z,41.47
2018-09-26T09:36:44.914Z,39.95
2018-09-26T09:39:14.657Z,42.29
2018-09-26T09:41:44.386Z,41.09
2018-09-26T09:44:14.184Z,41.96
2018-09-26T09:46:43.861Z,41.20
2018-09-26T09:49:13.612Z,41.87
2018-09-26T09:51:43.472Z,42.31
2018-09-26T09:54:13.151Z,41.16
2018-09-26T09:56:43.109Z,40.55
2018-09-26T09:59:12.772Z,41.52
2018-09-26T10:01:42.567Z,42.69
2018-09-26T10:04:12.248Z,44.69
2018-09-26T10:06:42.061Z,45.52
2018-09-26T10:09:11.712Z,46.24
2018-09-26T10:11:41.376Z,43.26
2018-09-26T10:14:11.238Z,44.58
2018-09-26T10:16:40.940Z,45.18
2018-09-26T10:19:10.781Z,47.41
2018-09-26T10:21:40.610Z,44.75
2018-09-26T10:24:10.316Z,46.25
2018-09-26T10:26:40.031Z,45.68
2018-09-26T10:29:09.839Z,43.69
2018-09-26T10:31:39.568Z,42.47
2018-09-26T10:34:09.322Z,41.82
2018-09-26T10:36:38.902Z,39.06
2018-09-26T10:39:10.237Z,37.21
2018-09-26T10:41:39.925Z,36.96
2018-09-26T10:44:09.550Z,37.51
2018-09-26T10:46:39.338Z,39.63
2018-09-26T10:49:09.126Z,37.53
2018-09-26T10:51:38.793Z,35.95
2018-09-26T10:54:08.798Z,36.53
2018-09-26T10:56:38.535Z,36.29
2018-09-26T10:59:08.214Z,37.37
2018-09-26T11:01:37.898Z,35.59
2018-09-26T11:04:07.959Z,36.22
2018-09-26T11:06:37.794Z,36.10
2018-09-26T11:09:09.822Z,32.71
2018-09-26T11:11:39.451Z,35.57
2018-09-26T11:14:09.145Z,37.48
2018-09-26T11:16:38.813Z,39.00
2018-09-26T11:19:08.494Z,41.43
2018-09-26T11:21:38.262Z,37.00
2018-09-26T11:24:07.863Z,35.59
2018-09-26T11:26:37.601Z,37.57
2018-09-26T11:29:07.288Z,35.88
2018-09-26T11:31:37.072Z,33.72
2018-09-26T11:34:06.842Z,34.97
2018-09-26T11:36:36.445Z,34.24
2018-09-26T11:39:08.777Z,34.20
2018-09-26T11:41:38.477Z,34.29
2018-09-26T11:44:08.551Z,33.47
2018-09-26T11:46:38.299Z,32.42
2018-09-26T11:49:08.372Z,35.67
2018-09-26T11:51:37.990Z,36.03
2018-09-26T11:54:07.746Z,31.57
2018-09-26T11:56:37.374Z,33.56
2018-09-26T11:59:07.542Z,33.51
2018-09-26T12:01:37.324Z,33.93
2018-09-26T12:04:06.992Z,36.20
2018-09-26T12:06:36.699Z,32.65
2018-09-26T12:09:08.577Z,32.55
2018-09-26T12:11:38.237Z,31.10
2018-09-26T12:14:07.969Z,31.92
2018-09-26T12:16:37.585Z,31.51
2018-09-26T12:19:07.427Z,32.89
2018-09-26T12:21:37.085Z,31.92
2018-09-26T12:24:06.809Z,32.91
2018-09-26T12:26:36.571Z,31.06
2018-09-26T12:29:06.258Z,31.30
2018-09-26T12:31:35.916Z,31.15
2018-09-26T12:34:06.056Z,30.95
2018-09-26T12:36:35.687Z,33.12
2018-09-26T12:39:07.738Z,32.80
2018-09-26T12:41:37.490Z,32.65
2018-09-26T12:44:07.374Z,33.34
2018-09-26T12:46:37.205Z,32.68
2018-09-26T12:49:06.884Z,32.08
2018-09-26T12:51:36.474Z,33.18
2018-09-26T12:54:06.281Z,34.10
2018-09-26T12:56:35.948Z,32.92
2018-09-26T12:59:05.762Z,32.42
2018-09-26T13:01:35.402Z,34.43
2018-09-26T13:04:05.240Z,33.09
2018-09-26T13:06:34.949Z,32.77
2018-09-26T13:09:05.487Z,33.51
2018-09-26T13:11:35.359Z,32.63
2018-09-26T13:14:05.313Z,32.94
2018-09-26T13:16:34.930Z,33.33
2018-09-26T13:19:04.783Z,32.51
2018-09-26T13:21:35.115Z,32.45
2018-09-26T13:24:04.776Z,33.39
2018-09-26T13:26:35.018Z,31.56
2018-09-26T13:29:05.731Z,33.00
2018-09-26T13:31:35.391Z,32.15
2018-09-26T13:34:05.077Z,32.05
2018-09-26T13:36:34.765Z,32.70
2018-09-26T13:39:07.974Z,33.67
2018-09-26T13:41:39.091Z,30.68
2018-09-26T13:44:09.166Z,30.96
2018-09-26T13:46:39.464Z,30.08
2018-09-26T13:49:09.077Z,30.72
2018-09-26T13:51:38.906Z,30.23
2018-09-26T13:54:08.659Z,30.74
2018-09-26T13:56:38.637Z,31.54
2018-09-26T13:59:08.384Z,32.96
2018-09-26T14:01:38.428Z,32.89
2018-09-26T14:04:08.200Z,32.50
2018-09-26T14:06:37.840Z,31.72
2018-09-26T14:09:08.514Z,31.33
2018-09-26T14:11:38.318Z,31.45
2018-09-26T14:14:08.483Z,31.73
2018-09-26T14:16:38.316Z,31.38
2018-09-26T14:19:08.838Z,31.68
2018-09-26T14:21:39.616Z,31.77
2018-09-26T14:24:09.447Z,31.98
2018-09-26T14:26:41.435Z,31.72
2018-09-26T14:29:11.139Z,33.42
2018-09-26T14:31:40.754Z,33.01
2018-09-26T14:34:10.596Z,30.35
2018-09-26T14:36:40.350Z,31.95
2018-09-26T14:39:10.106Z,30.22
2018-09-26T14:41:40.830Z,31.99
2018-09-26T14:44:10.972Z,32.29
2018-09-26T14:46:40.630Z,32.05
2018-09-26T14:49:10.966Z,30.42
2018-09-26T14:51:40.924Z,29.98
2018-09-26T14:54:10.673Z,30.77
2018-09-26T14:56:40.407Z,31.68
2018-09-26T14:59:10.042Z,30.71
2018-09-26T15:01:39.781Z,32.05
2018-09-26T15:04:09.562Z,31.42
2018-09-26T15:06:39.384Z,32.98
2018-09-26T15:09:09.272Z,30.97
2018-09-26T15:11:39.190Z,30.42
2018-09-26T15:14:08.901Z,30.60
2018-09-26T15:16:38.623Z,29.88
2018-09-26T15:19:09.022Z,32.29
2018-09-26T15:21:38.691Z,32.61
2018-09-26T15:24:08.544Z,32.93
2018-09-26T15:26:38.249Z,32.44
2018-09-26T15:29:08.128Z,32.00
2018-09-26T15:31:37.815Z,33.16
2018-09-26T15:34:07.702Z,32.10
2018-09-26T15:36:37.335Z,33.22
2018-09-26T15:39:09.917Z,31.64
2018-09-26T15:41:40.094Z,31.48
2018-09-26T15:44:09.805Z,31.88
2018-09-26T15:46:39.494Z,32.68
2018-09-26T15:49:09.214Z,32.12
2018-09-26T15:51:38.851Z,32.39
2018-09-26T15:54:09.112Z,33.29
2018-09-26T15:56:38.818Z,34.33
2018-09-26T15:59:08.492Z,34.29
2018-09-26T16:01:38.161Z,34.14
2018-09-26T16:04:07.903Z,32.99
2018-09-26T16:06:37.578Z,35.34
2018-09-26T16:09:07.540Z,36.24
2018-09-26T16:11:37.310Z,37.22
2018-09-26T16:14:06.955Z,39.54
2018-09-26T16:16:36.767Z,42.87
2018-09-26T16:19:06.496Z,39.25
2018-09-26T16:21:36.141Z,40.63
2018-09-26T16:24:05.917Z,42.34
2018-09-26T16:26:35.537Z,42.25
2018-09-26T16:29:05.315Z,42.87
2018-09-26T16:31:34.961Z,43.70
2018-09-26T16:34:04.598Z,44.99
2018-09-26T16:36:34.445Z,43.73
2018-09-26T16:39:05.911Z,42.58
2018-09-26T16:41:35.949Z,44.72
2018-09-26T16:44:05.634Z,44.54
2018-09-26T16:46:35.550Z,46.94
2018-09-26T16:49:05.386Z,46.60
2018-09-26T16:51:35.094Z,47.87
2018-09-26T16:54:04.791Z,46.33
2018-09-26T16:56:34.584Z,47.91
2018-09-26T16:59:04.627Z,48.32
2018-09-26T17:01:34.343Z,50.27
2018-09-26T17:04:03.996Z,51.28
2018-09-26T17:06:33.725Z,53.18
2018-09-26T17:09:03.900Z,55.21
2018-09-26T17:11:33.638Z,56.40
2018-09-26T17:14:03.278Z,57.68
2018-09-26T17:16:32.987Z,60.04
2018-09-26T17:19:02.707Z,62.12
2018-09-26T17:21:32.740Z,62.82
2018-09-26T17:24:02.579Z,63.68
2018-09-26T17:26:32.399Z,63.23
2018-09-26T17:29:02.013Z,63.47
2018-09-26T17:31:31.746Z,64.43
2018-09-26T17:34:02.310Z,64.46
2018-09-26T17:36:32.128Z,63.82
2018-09-26T17:39:01.899Z,65.68
2018-09-26T17:41:31.663Z,65.79
2018-09-26T17:44:01.393Z,67.04
2018-09-26T17:46:31.348Z,67.58
2018-09-26T17:49:01.151Z,68.46
2018-09-26T17:51:31.293Z,69.47
2018-09-26T17:54:01.064Z,71.33
2018-09-26T17:56:30.836Z,70.84
2018-09-26T17:59:00.620Z,71.78
2018-09-26T18:01:30.377Z,73.25
2018-09-26T18:04:00.035Z,73.57
2018-09-26T18:06:29.758Z,75.11
2018-09-26T18:08:59.630Z,73.78
2018-09-26T18:11:29.283Z,74.94
2018-09-26T18:13:59.077Z,76.44
2018-09-26T18:16:28.744Z,78.39
2018-09-26T18:18:58.507Z,79.09
2018-09-26T18:21:28.229Z,79.60
2018-09-26T18:23:58.100Z,79.33
2018-09-26T18:26:27.776Z,79.62
2018-09-26T18:28:57.612Z,81.37
2018-09-26T18:31:27.290Z,81.21
2018-09-26T18:33:57.047Z,81.76
2018-09-26T18:36:26.725Z,81.47
2018-09-26T18:38:56.712Z,81.71
2018-09-26T18:41:26.670Z,83.80
2018-09-26T18:43:56.455Z,84.92
2018-09-26T18:46:26.469Z,85.40
2018-09-26T18:48:56.235Z,85.45
2018-09-26T18:51:26.032Z,84.11
2018-09-26T18:53:55.849Z,85.36
2018-09-26T18:56:25.811Z,87.04
2018-09-26T18:58:56.162Z,86.52
2018-09-26T19:01:25.925Z,86.54
2018-09-26T19:03:56.888Z,87.16
2018-09-26T19:06:27.489Z,87.55
2018-09-26T19:08:57.731Z,88.04
2018-09-26T19:11:27.771Z,88.58
2018-09-26T19:13:58.966Z,89.16
2018-09-26T19:16:29.094Z,89.44
2018-09-26T19:18:59.101Z,91.04
2018-09-26T19:21:29.612Z,90.66
2018-09-26T19:24:00.447Z,90.71
2018-09-26T19:26:30.920Z,91.13
2018-09-26T19:29:01.739Z,90.97
2018-09-26T19:31:34.789Z,91.34
2018-09-26T19:34:04.942Z,92.19
2018-09-26T19:36:35.978Z,92.11
2018-09-26T19:39:10.618Z,92.56
2018-09-26T19:41:41.165Z,92.77
2018-09-26T19:44:11.426Z,93.46
2018-09-26T19:46:43.245Z,90.74
2018-09-26T19:49:12.895Z,90.00
2018-09-26T19:51:42.704Z,92.69
2018-09-26T19:54:12.711Z,91.91
2018-09-26T19:56:42.698Z,91.78
2018-09-26T19:59:12.514Z,91.74
2018-09-26T20:01:43.208Z,91.12
2018-09-26T20:04:12.905Z,90.52
2018-09-26T20:06:44.952Z,92.49
2018-09-26T20:09:14.718Z,92.84
2018-09-26T20:11:45.140Z,93.35
2018-09-26T20:14:15.711Z,93.73
2018-09-26T20:16:45.545Z,92.96
2018-09-26T20:19:15.448Z,93.19
2018-09-26T20:21:45.573Z,93.33
2018-09-26T20:24:15.459Z,94.52
2018-09-26T20:26:46.052Z,93.98
2018-09-26T20:29:15.944Z,94.62
2018-09-26T20:31:46.746Z,95.52
2018-09-26T20:34:17.463Z,95.74
2018-09-26T20:36:48.833Z,96.19
2018-09-26T20:39:18.545Z,96.80
2018-09-26T20:41:49.832Z,97.07
2018-09-26T20:44:20.060Z,98.26
2018-09-26T20:46:50.518Z,97.81
2018-09-26T20:49:21.142Z,98.27
2018-09-26T20:51:52.325Z,97.97
2018-09-26T20:54:22.439Z,99.18
2018-09-26T20:56:53.133Z,99.63
2018-09-26T20:59:24.274Z,99.96
2018-09-26T21:01:55.054Z,99.84
2018-09-26T21:04:25.138Z,100.00
2018-09-26T21:06:54.994Z,100.00
2018-09-26T21:09:24.760Z,100.00
2018-09-26T21:11:54.547Z,100.00
2018-09-26T21:14:24.084Z,100.00
2018-09-26T21:16:53.845Z,100.00
2018-09-26T21:19:23.482Z,100.00
2018-09-26T21:21:53.999Z,100.00
2018-09-26T21:24:24.670Z,100.00
2018-09-26T21:26:54.268Z,100.00
2018-09-26T21:29:24.021Z,100.00
2018-09-26T21:31:53.737Z,100.00
2018-09-26T21:34:23.407Z,100.00
2018-09-26T21:36:53.093Z,100.00
2018-09-26T21:39:22.759Z,100.00
2018-09-26T21:41:57.119Z,100.00
2018-09-26T21:44:26.897Z,100.00
2018-09-26T21:46:56.590Z,100.00
2018-09-26T21:49:26.417Z,100.00
2018-09-26T21:51:56.204Z,100.00
2018-09-26T21:54:25.946Z,100.00
2018-09-26T21:56:55.621Z,100.00
2018-09-26T21:59:25.459Z,100.00
2018-09-26T22:01:55.373Z,100.00
2018-09-26T22:04:25.354Z,100.00
2018-09-26T22:06:55.067Z,100.00
2018-09-26T22:09:25.021Z,100.00
2018-09-26T22:11:54.847Z,100.00
2018-09-26T22:14:24.758Z,100.00
2018-09-26T22:16:54.685Z,100.00
2018-09-26T22:19:24.522Z,100.00
2018-09-26T22:21:54.406Z,100.00
2018-09-26T22:24:24.256Z,100.00
2018-09-26T22:26:54.198Z,100.00
2018-09-26T22:29:23.992Z,100.00
2018-09-26T22:31:53.817Z,100.00
2018-09-26T22:34:23.868Z,100.00
2018-09-26T22:36:53.613Z,100.00
2018-09-26T22:39:23.512Z,100.00
2018-09-26T22:41:53.398Z,100.00
2018-09-26T22:44:23.239Z,100.00
2018-09-26T22:46:53.093Z,100.00
2018-09-26T22:49:22.850Z,100.00
2018-09-26T22:51:52.615Z,100.00
2018-09-26T22:54:22.404Z,100.00
2018-09-26T22:56:52.247Z,100.00
2018-09-26T22:59:22.145Z,100.00
2018-09-26T23:01:52.005Z,100.00
2018-09-26T23:04:22.071Z,100.00
2018-09-26T23:06:51.892Z,100.00
2018-09-26T23:09:21.731Z,100.00
2018-09-26T23:11:51.525Z,100.00
2018-09-26T23:14:21.334Z,100.00
2018-09-26T23:16:52.119Z,100.00
2018-09-26T23:19:21.849Z,100.00
2018-09-26T23:21:51.695Z,100.00
2018-09-26T23:24:21.445Z,100.00
2018-09-26T23:26:51.396Z,100.00
2018-09-26T23:29:21.173Z,100.00
2018-09-26T23:31:51.057Z,100.00
2018-09-26T23:34:20.982Z,100.00
2018-09-26T23:36:50.818Z,100.00
2018-09-26T23:39:20.577Z,100.00
2018-09-26T23:41:50.368Z,100.00
2018-09-26T23:44:20.144Z,100.00
2018-09-26T23:46:50.069Z,100.00
2018-09-26T23:49:19.855Z,100.00
2018-09-26T23:51:49.690Z,100.00
2018-09-26T23:54:19.894Z,100.00
2018-09-26T23:56:49.748Z,100.00
2018-09-26T23:59:19.728Z,100.00
